Aeroporto :
LOGIN :

Iscrizione | Disclaimer

   EN    FR    IT 

 










Sommario :    VFR   VFR Marginale   IFR   IFR Intensivo   IFR Molto Intensivo
Visibilità : 
Base nubi : 
>= 8 km
>= 3000ft
5 / 8 km
1000 / 3000 ft
1500m / 5 km
500 / 1000 ft
800 / 1500m
200 / 500 ft
< 800m
< 200 ft
Simboli :   Temporali  Nebbia  Neve Forte  Precipitazioni Forti  Vento > 20 kt
SIGMETs :   Varie  Temporali  Ghiacco  Turbolenza  Onda orograficha  Ceneri Vulcaniche







- Altitudine del aeroporto : 1020 ft
- Codice IATA : ILZ


LZZI - Žilina

ULTIMO METAR :
  • 201600Z 35008KT 310V020 CAVOK 19/M02 Q1025

METARs OBSOLETI :
  • 201530Z 34008KT 310V010 CAVOK 19/M03 Q1025
  • 201500Z 36007KT 280V060 CAVOK 20/M02 Q1026
  • 201430Z 03007KT 310V100 CAVOK 20/M04 Q1026
  • 201400Z VRB05KT CAVOK 20/M06 Q1026
  • 201330Z 36006KT 330V060 CAVOK 20/M06 Q1026

TAF TAF LZZI
Valido dal 20 a 15 ore il 21 a 00 ore UTC


201400Z 2015/2100 04008KT CAVOK
BECMG 2016/2018 VRB02KT
Nessun NOTAM noto per questo aeroporto.



MetMap, La meteo Aeronautica in un colpo d'occhio ! - Copyright ORBIFLY Dicembre 2007 - Disclaimer

ORBIFLY MET'MAP TEAM :

Programmazione e sviluppo : Alexandra Zaïnal
Concezione e sviluppo : Baudouin d'Aumeries
Co-Programmazione e sviluppo : Marc-Olivier Méhu
Supporto tecnico e logistico : Manuel Goepfert
Aiuto per la traduzione : Arnaldo La Scala

Contatto : metmap@orbifly.com




FONTI E CREDITI :

   NOAA